sensor_id;sensor_type;location;lat;lon;timestamp;P1;durP1;ratioP1;P2;durP2;ratioP2
17239;SDS011;9943;54.378;18.604;2022-12-20T00:01:50;13.77;;;9.13;;
17239;SDS011;9943;54.378;18.604;2022-12-20T00:04:19;16.70;;;9.83;;
17239;SDS011;9943;54.378;18.604;2022-12-20T00:06:46;14.43;;;10.07;;
17239;SDS011;9943;54.378;18.604;2022-12-20T00:09:14;13.97;;;9.10;;
17239;SDS011;9943;54.378;18.604;2022-12-20T00:11:42;12.80;;;9.73;;
17239;SDS011;9943;54.378;18.604;2022-12-20T00:14:12;14.67;;;9.13;;
17239;SDS011;9943;54.378;18.604;2022-12-20T00:16:39;17.23;;;9.57;;
17239;SDS011;9943;54.378;18.604;2022-12-20T00:19:08;15.30;;;9.50;;
17239;SDS011;9943;54.378;18.604;2022-12-20T00:21:38;16.73;;;9.33;;
17239;SDS011;9943;54.378;18.604;2022-12-20T00:24:06;16.67;;;8.87;;
17239;SDS011;9943;54.378;18.604;2022-12-20T00:26:37;9.97;;;7.83;;
17239;SDS011;9943;54.378;18.604;2022-12-20T00:29:05;10.73;;;8.03;;
17239;SDS011;9943;54.378;18.604;2022-12-20T00:31:33;12.37;;;8.03;;
17239;SDS011;9943;54.378;18.604;2022-12-20T00:34:01;11.47;;;7.67;;
17239;SDS011;9943;54.378;18.604;2022-12-20T00:36:29;11.20;;;7.37;;
17239;SDS011;9943;54.378;18.604;2022-12-20T00:38:59;10.07;;;6.93;;
17239;SDS011;9943;54.378;18.604;2022-12-20T00:41:28;8.13;;;6.50;;
17239;SDS011;9943;54.378;18.604;2022-12-20T00:43:56;10.40;;;7.33;;
17239;SDS011;9943;54.378;18.604;2022-12-20T00:46:24;10.87;;;6.43;;
17239;SDS011;9943;54.378;18.604;2022-12-20T00:48:54;8.67;;;6.57;;
17239;SDS011;9943;54.378;18.604;2022-12-20T00:51:23;8.20;;;5.87;;
17239;SDS011;9943;54.378;18.604;2022-12-20T00:53:52;8.83;;;6.10;;
17239;SDS011;9943;54.378;18.604;2022-12-20T00:56:21;7.83;;;5.90;;
17239;SDS011;9943;54.378;18.604;2022-12-20T00:58:49;9.00;;;6.23;;
17239;SDS011;9943;54.378;18.604;2022-12-20T01:01:19;9.67;;;6.40;;
17239;SDS011;9943;54.378;18.604;2022-12-20T01:03:49;9.37;;;5.83;;
17239;SDS011;9943;54.378;18.604;2022-12-20T01:06:17;9.33;;;5.97;;
17239;SDS011;9943;54.378;18.604;2022-12-20T01:08:47;8.50;;;5.73;;
17239;SDS011;9943;54.378;18.604;2022-12-20T01:11:16;6.97;;;5.87;;
17239;SDS011;9943;54.378;18.604;2022-12-20T01:13:48;7.97;;;6.27;;
17239;SDS011;9943;54.378;18.604;2022-12-20T01:16:21;8.03;;;6.13;;
17239;SDS011;9943;54.378;18.604;2022-12-20T01:18:49;8.03;;;5.90;;
17239;SDS011;9943;54.378;18.604;2022-12-20T01:21:18;9.03;;;6.07;;
17239;SDS011;9943;54.378;18.604;2022-12-20T01:23:47;5.90;;;5.00;;
17239;SDS011;9943;54.378;18.604;2022-12-20T01:26:15;6.90;;;5.83;;
17239;SDS011;9943;54.378;18.604;2022-12-20T01:28:50;9.00;;;6.43;;
17239;SDS011;9943;54.378;18.604;2022-12-20T01:31:19;8.70;;;6.33;;
17239;SDS011;9943;54.378;18.604;2022-12-20T01:33:48;7.17;;;5.40;;
17239;SDS011;9943;54.378;18.604;2022-12-20T01:36:17;7.20;;;5.70;;
17239;SDS011;9943;54.378;18.604;2022-12-20T01:38:46;8.17;;;5.60;;
17239;SDS011;9943;54.378;18.604;2022-12-20T01:41:14;8.37;;;5.87;;
17239;SDS011;9943;54.378;18.604;2022-12-20T01:43:44;10.03;;;5.70;;
17239;SDS011;9943;54.378;18.604;2022-12-20T01:46:15;6.90;;;5.37;;
17239;SDS011;9943;54.378;18.604;2022-12-20T01:48:45;7.20;;;5.20;;
17239;SDS011;9943;54.378;18.604;2022-12-20T01:51:18;6.40;;;4.80;;
17239;SDS011;9943;54.378;18.604;2022-12-20T01:53:47;7.03;;;5.13;;
17239;SDS011;9943;54.378;18.604;2022-12-20T01:56:18;6.37;;;5.20;;
17239;SDS011;9943;54.378;18.604;2022-12-20T01:58:46;6.90;;;5.37;;
17239;SDS011;9943;54.378;18.604;2022-12-20T02:01:18;8.60;;;5.67;;
17239;SDS011;9943;54.378;18.604;2022-12-20T02:03:48;7.00;;;5.80;;
17239;SDS011;9943;54.378;18.604;2022-12-20T02:06:19;8.33;;;5.77;;
17239;SDS011;9943;54.378;18.604;2022-12-20T02:08:49;7.53;;;6.00;;
17239;SDS011;9943;54.378;18.604;2022-12-20T02:14:17;8.00;;;6.50;;
17239;SDS011;9943;54.378;18.604;2022-12-20T02:17:03;12.20;;;7.70;;
17239;SDS011;9943;54.378;18.604;2022-12-20T02:22:33;10.80;;;7.93;;
17239;SDS011;9943;54.378;18.604;2022-12-20T02:25:21;10.03;;;7.27;;
17239;SDS011;9943;54.378;18.604;2022-12-20T02:28:07;11.73;;;9.30;;
17239;SDS011;9943;54.378;18.604;2022-12-20T02:30:48;11.63;;;7.87;;
17239;SDS011;9943;54.378;18.604;2022-12-20T02:33:19;13.70;;;9.47;;
17239;SDS011;9943;54.378;18.604;2022-12-20T02:35:50;15.50;;;9.63;;
17239;SDS011;9943;54.378;18.604;2022-12-20T02:38:26;14.80;;;10.90;;
17239;SDS011;9943;54.378;18.604;2022-12-20T02:40:58;15.17;;;10.37;;
17239;SDS011;9943;54.378;18.604;2022-12-20T02:43:30;17.53;;;10.83;;
17239;SDS011;9943;54.378;18.604;2022-12-20T02:46:19;16.63;;;11.33;;
17239;SDS011;9943;54.378;18.604;2022-12-20T02:48:49;17.23;;;12.17;;
17239;SDS011;9943;54.378;18.604;2022-12-20T02:51:20;23.93;;;14.13;;
17239;SDS011;9943;54.378;18.604;2022-12-20T02:53:51;20.10;;;12.40;;
17239;SDS011;9943;54.378;18.604;2022-12-20T02:56:21;21.10;;;12.87;;
17239;SDS011;9943;54.378;18.604;2022-12-20T02:58:55;20.23;;;13.40;;
17239;SDS011;9943;54.378;18.604;2022-12-20T03:01:30;19.30;;;12.50;;
17239;SDS011;9943;54.378;18.604;2022-12-20T03:04:01;19.70;;;13.47;;
17239;SDS011;9943;54.378;18.604;2022-12-20T03:06:30;20.80;;;13.37;;
17239;SDS011;9943;54.378;18.604;2022-12-20T03:08:58;22.60;;;14.70;;
17239;SDS011;9943;54.378;18.604;2022-12-20T03:11:26;22.40;;;14.50;;
17239;SDS011;9943;54.378;18.604;2022-12-20T03:13:53;22.63;;;15.23;;
17239;SDS011;9943;54.378;18.604;2022-12-20T03:16:22;23.30;;;13.90;;
17239;SDS011;9943;54.378;18.604;2022-12-20T03:18:51;20.80;;;14.30;;
17239;SDS011;9943;54.378;18.604;2022-12-20T03:21:18;22.07;;;14.63;;
17239;SDS011;9943;54.378;18.604;2022-12-20T03:23:46;22.37;;;14.13;;
17239;SDS011;9943;54.378;18.604;2022-12-20T03:26:16;22.13;;;14.20;;
17239;SDS011;9943;54.378;18.604;2022-12-20T03:28:44;24.00;;;14.80;;
17239;SDS011;9943;54.378;18.604;2022-12-20T03:31:14;23.20;;;14.17;;
17239;SDS011;9943;54.378;18.604;2022-12-20T03:33:41;22.80;;;14.77;;
17239;SDS011;9943;54.378;18.604;2022-12-20T03:36:10;24.10;;;14.63;;
17239;SDS011;9943;54.378;18.604;2022-12-20T03:38:40;23.17;;;15.43;;
17239;SDS011;9943;54.378;18.604;2022-12-20T03:41:31;22.17;;;13.47;;
17239;SDS011;9943;54.378;18.604;2022-12-20T03:43:58;21.10;;;13.77;;
17239;SDS011;9943;54.378;18.604;2022-12-20T03:46:28;22.67;;;15.80;;
17239;SDS011;9943;54.378;18.604;2022-12-20T03:48:56;25.97;;;16.57;;
17239;SDS011;9943;54.378;18.604;2022-12-20T03:51:25;26.17;;;15.97;;
17239;SDS011;9943;54.378;18.604;2022-12-20T03:53:55;29.13;;;17.13;;
17239;SDS011;9943;54.378;18.604;2022-12-20T03:56:24;25.37;;;16.57;;
17239;SDS011;9943;54.378;18.604;2022-12-20T03:58:52;25.90;;;15.70;;
17239;SDS011;9943;54.378;18.604;2022-12-20T04:01:20;27.63;;;16.53;;
17239;SDS011;9943;54.378;18.604;2022-12-20T04:03:49;22.93;;;15.47;;
17239;SDS011;9943;54.378;18.604;2022-12-20T04:06:17;24.40;;;14.93;;
17239;SDS011;9943;54.378;18.604;2022-12-20T04:08:46;28.50;;;17.73;;
17239;SDS011;9943;54.378;18.604;2022-12-20T04:11:14;31.63;;;16.67;;
17239;SDS011;9943;54.378;18.604;2022-12-20T04:13:42;28.17;;;17.10;;
17239;SDS011;9943;54.378;18.604;2022-12-20T04:16:10;26.93;;;15.87;;
17239;SDS011;9943;54.378;18.604;2022-12-20T04:18:37;26.17;;;16.63;;
17239;SDS011;9943;54.378;18.604;2022-12-20T04:21:10;28.07;;;17.33;;
17239;SDS011;9943;54.378;18.604;2022-12-20T04:23:41;26.67;;;16.73;;
17239;SDS011;9943;54.378;18.604;2022-12-20T04:26:10;26.63;;;16.43;;
17239;SDS011;9943;54.378;18.604;2022-12-20T04:28:38;28.83;;;17.13;;
17239;SDS011;9943;54.378;18.604;2022-12-20T04:31:05;30.53;;;17.43;;
17239;SDS011;9943;54.378;18.604;2022-12-20T04:33:33;29.77;;;17.43;;
17239;SDS011;9943;54.378;18.604;2022-12-20T04:36:01;31.07;;;17.47;;
17239;SDS011;9943;54.378;18.604;2022-12-20T04:38:30;32.03;;;18.10;;
17239;SDS011;9943;54.378;18.604;2022-12-20T04:41:00;29.63;;;18.03;;
17239;SDS011;9943;54.378;18.604;2022-12-20T04:43:31;30.03;;;17.07;;
17239;SDS011;9943;54.378;18.604;2022-12-20T04:45:59;28.37;;;17.00;;
17239;SDS011;9943;54.378;18.604;2022-12-20T04:48:27;31.00;;;17.40;;
17239;SDS011;9943;54.378;18.604;2022-12-20T04:50:56;28.47;;;17.87;;
17239;SDS011;9943;54.378;18.604;2022-12-20T04:53:25;30.50;;;17.30;;
17239;SDS011;9943;54.378;18.604;2022-12-20T04:56:10;34.40;;;19.47;;
17239;SDS011;9943;54.378;18.604;2022-12-20T04:58:39;28.13;;;17.33;;
17239;SDS011;9943;54.378;18.604;2022-12-20T05:01:07;26.93;;;17.53;;
17239;SDS011;9943;54.378;18.604;2022-12-20T05:03:35;27.67;;;16.00;;
17239;SDS011;9943;54.378;18.604;2022-12-20T05:06:03;26.83;;;16.93;;
17239;SDS011;9943;54.378;18.604;2022-12-20T05:08:34;28.53;;;17.03;;
17239;SDS011;9943;54.378;18.604;2022-12-20T05:11:02;29.47;;;17.47;;
17239;SDS011;9943;54.378;18.604;2022-12-20T05:13:31;24.97;;;17.17;;
17239;SDS011;9943;54.378;18.604;2022-12-20T05:16:00;28.77;;;15.93;;
17239;SDS011;9943;54.378;18.604;2022-12-20T05:18:28;27.73;;;16.70;;
17239;SDS011;9943;54.378;18.604;2022-12-20T05:20:56;25.50;;;16.43;;
17239;SDS011;9943;54.378;18.604;2022-12-20T05:23:42;26.17;;;16.43;;
17239;SDS011;9943;54.378;18.604;2022-12-20T05:26:29;26.87;;;16.97;;
17239;SDS011;9943;54.378;18.604;2022-12-20T05:28:59;24.97;;;15.63;;
17239;SDS011;9943;54.378;18.604;2022-12-20T05:31:29;25.37;;;15.53;;
17239;SDS011;9943;54.378;18.604;2022-12-20T05:33:57;25.53;;;15.67;;
17239;SDS011;9943;54.378;18.604;2022-12-20T05:36:25;26.67;;;17.00;;
17239;SDS011;9943;54.378;18.604;2022-12-20T05:38:52;27.07;;;16.53;;
17239;SDS011;9943;54.378;18.604;2022-12-20T05:41:20;25.00;;;15.70;;
17239;SDS011;9943;54.378;18.604;2022-12-20T05:43:48;29.50;;;17.97;;
17239;SDS011;9943;54.378;18.604;2022-12-20T05:46:15;26.93;;;16.87;;
17239;SDS011;9943;54.378;18.604;2022-12-20T05:48:44;26.83;;;17.23;;
17239;SDS011;9943;54.378;18.604;2022-12-20T05:51:13;28.73;;;17.50;;
17239;SDS011;9943;54.378;18.604;2022-12-20T05:53:41;25.87;;;17.23;;
17239;SDS011;9943;54.378;18.604;2022-12-20T05:56:09;27.67;;;17.53;;
17239;SDS011;9943;54.378;18.604;2022-12-20T05:58:37;29.60;;;17.57;;
17239;SDS011;9943;54.378;18.604;2022-12-20T06:01:06;29.07;;;17.33;;
17239;SDS011;9943;54.378;18.604;2022-12-20T06:03:37;30.10;;;17.40;;
17239;SDS011;9943;54.378;18.604;2022-12-20T06:06:07;32.03;;;18.90;;
17239;SDS011;9943;54.378;18.604;2022-12-20T06:08:35;28.67;;;16.37;;
17239;SDS011;9943;54.378;18.604;2022-12-20T06:11:02;33.53;;;17.97;;
17239;SDS011;9943;54.378;18.604;2022-12-20T06:13:31;30.50;;;18.70;;
17239;SDS011;9943;54.378;18.604;2022-12-20T06:15:59;31.57;;;18.77;;
17239;SDS011;9943;54.378;18.604;2022-12-20T06:18:29;32.33;;;18.63;;
17239;SDS011;9943;54.378;18.604;2022-12-20T06:20:57;34.90;;;18.90;;
17239;SDS011;9943;54.378;18.604;2022-12-20T06:23:26;34.20;;;18.73;;
17239;SDS011;9943;54.378;18.604;2022-12-20T06:25:56;40.77;;;20.27;;
17239;SDS011;9943;54.378;18.604;2022-12-20T06:28:24;34.80;;;19.23;;
17239;SDS011;9943;54.378;18.604;2022-12-20T06:30:52;35.93;;;18.87;;
17239;SDS011;9943;54.378;18.604;2022-12-20T06:33:22;33.53;;;19.23;;
17239;SDS011;9943;54.378;18.604;2022-12-20T06:35:50;36.67;;;20.13;;
17239;SDS011;9943;54.378;18.604;2022-12-20T06:38:18;36.13;;;20.53;;
17239;SDS011;9943;54.378;18.604;2022-12-20T06:40:49;35.77;;;19.83;;
17239;SDS011;9943;54.378;18.604;2022-12-20T06:43:17;38.73;;;19.47;;
17239;SDS011;9943;54.378;18.604;2022-12-20T06:45:44;41.40;;;21.70;;
17239;SDS011;9943;54.378;18.604;2022-12-20T06:48:12;39.03;;;20.90;;
17239;SDS011;9943;54.378;18.604;2022-12-20T06:50:40;39.73;;;20.50;;
17239;SDS011;9943;54.378;18.604;2022-12-20T06:53:07;40.70;;;20.70;;
17239;SDS011;9943;54.378;18.604;2022-12-20T06:55:35;44.97;;;22.23;;
17239;SDS011;9943;54.378;18.604;2022-12-20T06:58:04;40.60;;;22.23;;
17239;SDS011;9943;54.378;18.604;2022-12-20T07:00:32;38.23;;;21.40;;
17239;SDS011;9943;54.378;18.604;2022-12-20T07:03:00;34.37;;;18.87;;
17239;SDS011;9943;54.378;18.604;2022-12-20T07:05:28;40.33;;;20.73;;
17239;SDS011;9943;54.378;18.604;2022-12-20T07:07:55;41.27;;;21.10;;
17239;SDS011;9943;54.378;18.604;2022-12-20T07:10:24;40.80;;;21.70;;
17239;SDS011;9943;54.378;18.604;2022-12-20T07:12:51;41.80;;;21.43;;
17239;SDS011;9943;54.378;18.604;2022-12-20T07:15:20;42.23;;;21.97;;
17239;SDS011;9943;54.378;18.604;2022-12-20T07:17:50;41.43;;;21.77;;
17239;SDS011;9943;54.378;18.604;2022-12-20T07:20:18;44.47;;;21.40;;
17239;SDS011;9943;54.378;18.604;2022-12-20T07:22:46;41.10;;;21.93;;
17239;SDS011;9943;54.378;18.604;2022-12-20T07:25:14;39.93;;;21.60;;
17239;SDS011;9943;54.378;18.604;2022-12-20T07:27:45;40.90;;;21.17;;
17239;SDS011;9943;54.378;18.604;2022-12-20T07:30:14;40.10;;;21.40;;
17239;SDS011;9943;54.378;18.604;2022-12-20T07:32:46;42.83;;;22.17;;
17239;SDS011;9943;54.378;18.604;2022-12-20T07:35:14;40.57;;;21.93;;
17239;SDS011;9943;54.378;18.604;2022-12-20T07:37:43;43.70;;;22.47;;
17239;SDS011;9943;54.378;18.604;2022-12-20T07:40:11;42.60;;;22.07;;
17239;SDS011;9943;54.378;18.604;2022-12-20T07:42:39;49.73;;;22.47;;
17239;SDS011;9943;54.378;18.604;2022-12-20T07:45:10;40.20;;;21.00;;
17239;SDS011;9943;54.378;18.604;2022-12-20T07:47:37;45.03;;;20.97;;
17239;SDS011;9943;54.378;18.604;2022-12-20T07:50:07;41.27;;;20.87;;
17239;SDS011;9943;54.378;18.604;2022-12-20T07:52:37;35.80;;;19.13;;
17239;SDS011;9943;54.378;18.604;2022-12-20T07:55:09;41.10;;;22.10;;
17239;SDS011;9943;54.378;18.604;2022-12-20T07:57:39;37.13;;;20.70;;
17239;SDS011;9943;54.378;18.604;2022-12-20T08:00:10;45.13;;;22.53;;
17239;SDS011;9943;54.378;18.604;2022-12-20T08:02:39;41.60;;;20.87;;
17239;SDS011;9943;54.378;18.604;2022-12-20T08:05:12;42.57;;;21.27;;
17239;SDS011;9943;54.378;18.604;2022-12-20T08:07:40;42.57;;;21.77;;
17239;SDS011;9943;54.378;18.604;2022-12-20T08:10:12;40.50;;;21.53;;
17239;SDS011;9943;54.378;18.604;2022-12-20T08:12:44;40.10;;;21.87;;
17239;SDS011;9943;54.378;18.604;2022-12-20T08:15:12;46.57;;;22.13;;
17239;SDS011;9943;54.378;18.604;2022-12-20T08:17:42;38.67;;;21.60;;
17239;SDS011;9943;54.378;18.604;2022-12-20T08:20:14;39.40;;;22.30;;
17239;SDS011;9943;54.378;18.604;2022-12-20T08:22:44;34.80;;;19.80;;
17239;SDS011;9943;54.378;18.604;2022-12-20T08:25:15;37.47;;;21.17;;
17239;SDS011;9943;54.378;18.604;2022-12-20T08:27:43;39.90;;;21.13;;
17239;SDS011;9943;54.378;18.604;2022-12-20T08:30:13;39.27;;;21.03;;
17239;SDS011;9943;54.378;18.604;2022-12-20T08:32:41;38.80;;;21.20;;
17239;SDS011;9943;54.378;18.604;2022-12-20T08:35:10;32.17;;;18.83;;
17239;SDS011;9943;54.378;18.604;2022-12-20T08:37:41;36.07;;;20.43;;
17239;SDS011;9943;54.378;18.604;2022-12-20T08:40:09;37.43;;;21.57;;
17239;SDS011;9943;54.378;18.604;2022-12-20T08:42:38;38.20;;;20.73;;
17239;SDS011;9943;54.378;18.604;2022-12-20T08:45:05;30.27;;;19.03;;
17239;SDS011;9943;54.378;18.604;2022-12-20T08:47:34;35.40;;;19.07;;
17239;SDS011;9943;54.378;18.604;2022-12-20T08:50:22;41.10;;;21.57;;
17239;SDS011;9943;54.378;18.604;2022-12-20T08:52:53;36.67;;;20.73;;
17239;SDS011;9943;54.378;18.604;2022-12-20T08:55:20;31.40;;;19.50;;
17239;SDS011;9943;54.378;18.604;2022-12-20T08:57:49;35.00;;;19.20;;
17239;SDS011;9943;54.378;18.604;2022-12-20T09:00:17;30.73;;;18.83;;
17239;SDS011;9943;54.378;18.604;2022-12-20T09:02:47;33.10;;;18.93;;
17239;SDS011;9943;54.378;18.604;2022-12-20T09:05:18;32.60;;;18.20;;
17239;SDS011;9943;54.378;18.604;2022-12-20T09:07:47;29.93;;;18.73;;
17239;SDS011;9943;54.378;18.604;2022-12-20T09:10:16;32.17;;;17.60;;
17239;SDS011;9943;54.378;18.604;2022-12-20T09:12:44;37.00;;;20.13;;
17239;SDS011;9943;54.378;18.604;2022-12-20T09:15:12;33.60;;;19.40;;
17239;SDS011;9943;54.378;18.604;2022-12-20T09:17:40;34.50;;;20.37;;
17239;SDS011;9943;54.378;18.604;2022-12-20T09:20:07;35.83;;;18.63;;
17239;SDS011;9943;54.378;18.604;2022-12-20T09:22:37;33.33;;;18.40;;
17239;SDS011;9943;54.378;18.604;2022-12-20T09:25:05;30.80;;;17.90;;
17239;SDS011;9943;54.378;18.604;2022-12-20T09:27:35;32.97;;;18.73;;
17239;SDS011;9943;54.378;18.604;2022-12-20T09:30:03;28.87;;;17.10;;
17239;SDS011;9943;54.378;18.604;2022-12-20T09:32:31;32.40;;;18.87;;
17239;SDS011;9943;54.378;18.604;2022-12-20T09:35:01;37.73;;;19.17;;
17239;SDS011;9943;54.378;18.604;2022-12-20T09:37:30;36.83;;;19.17;;
17239;SDS011;9943;54.378;18.604;2022-12-20T09:39:58;34.27;;;19.93;;
17239;SDS011;9943;54.378;18.604;2022-12-20T09:42:26;34.07;;;19.53;;
17239;SDS011;9943;54.378;18.604;2022-12-20T09:44:58;32.17;;;17.60;;
17239;SDS011;9943;54.378;18.604;2022-12-20T09:47:30;36.87;;;20.03;;
17239;SDS011;9943;54.378;18.604;2022-12-20T09:50:00;30.80;;;20.60;;
17239;SDS011;9943;54.378;18.604;2022-12-20T09:52:33;37.67;;;22.23;;
17239;SDS011;9943;54.378;18.604;2022-12-20T09:55:16;33.80;;;19.20;;
17239;SDS011;9943;54.378;18.604;2022-12-20T09:57:53;33.10;;;17.73;;
17239;SDS011;9943;54.378;18.604;2022-12-20T10:00:33;36.37;;;19.03;;
17239;SDS011;9943;54.378;18.604;2022-12-20T10:03:02;31.23;;;17.10;;
17239;SDS011;9943;54.378;18.604;2022-12-20T10:05:32;31.40;;;18.07;;
17239;SDS011;9943;54.378;18.604;2022-12-20T10:08:10;31.97;;;17.67;;
17239;SDS011;9943;54.378;18.604;2022-12-20T10:10:50;31.57;;;17.07;;
17239;SDS011;9943;54.378;18.604;2022-12-20T10:13:23;28.77;;;17.90;;
17239;SDS011;9943;54.378;18.604;2022-12-20T10:16:02;32.57;;;19.13;;
17239;SDS011;9943;54.378;18.604;2022-12-20T10:18:44;28.00;;;17.00;;
17239;SDS011;9943;54.378;18.604;2022-12-20T10:21:24;28.97;;;17.77;;
17239;SDS011;9943;54.378;18.604;2022-12-20T10:24:03;29.60;;;17.57;;
17239;SDS011;9943;54.378;18.604;2022-12-20T10:26:38;30.83;;;18.07;;
17239;SDS011;9943;54.378;18.604;2022-12-20T10:29:07;32.53;;;19.03;;
17239;SDS011;9943;54.378;18.604;2022-12-20T10:31:37;32.07;;;19.30;;
17239;SDS011;9943;54.378;18.604;2022-12-20T10:34:05;33.70;;;19.87;;
17239;SDS011;9943;54.378;18.604;2022-12-20T10:36:34;32.50;;;18.97;;
17239;SDS011;9943;54.378;18.604;2022-12-20T10:39:04;27.57;;;17.53;;
17239;SDS011;9943;54.378;18.604;2022-12-20T10:41:33;33.03;;;19.23;;
17239;SDS011;9943;54.378;18.604;2022-12-20T10:44:16;32.53;;;18.87;;
17239;SDS011;9943;54.378;18.604;2022-12-20T10:46:48;28.03;;;16.53;;
17239;SDS011;9943;54.378;18.604;2022-12-20T10:49:25;30.53;;;17.93;;
17239;SDS011;9943;54.378;18.604;2022-12-20T10:51:56;36.80;;;18.83;;
17239;SDS011;9943;54.378;18.604;2022-12-20T10:54:28;29.50;;;18.40;;
17239;SDS011;9943;54.378;18.604;2022-12-20T10:56:59;33.63;;;19.00;;
17239;SDS011;9943;54.378;18.604;2022-12-20T10:59:29;33.17;;;19.70;;
17239;SDS011;9943;54.378;18.604;2022-12-20T11:02:07;31.57;;;19.10;;
17239;SDS011;9943;54.378;18.604;2022-12-20T11:04:56;35.30;;;19.10;;
17239;SDS011;9943;54.378;18.604;2022-12-20T11:07:26;33.87;;;18.67;;
17239;SDS011;9943;54.378;18.604;2022-12-20T11:09:56;27.87;;;17.67;;
17239;SDS011;9943;54.378;18.604;2022-12-20T11:12:25;33.77;;;19.80;;
17239;SDS011;9943;54.378;18.604;2022-12-20T11:15:06;32.30;;;21.00;;
17239;SDS011;9943;54.378;18.604;2022-12-20T11:17:40;29.30;;;19.03;;
17239;SDS011;9943;54.378;18.604;2022-12-20T11:20:21;32.90;;;18.47;;
17239;SDS011;9943;54.378;18.604;2022-12-20T11:22:58;30.37;;;16.70;;
17239;SDS011;9943;54.378;18.604;2022-12-20T11:25:40;32.03;;;19.00;;
17239;SDS011;9943;54.378;18.604;2022-12-20T11:28:31;33.03;;;17.77;;
17239;SDS011;9943;54.378;18.604;2022-12-20T11:31:14;30.07;;;18.13;;
17239;SDS011;9943;54.378;18.604;2022-12-20T11:33:51;32.23;;;18.20;;
17239;SDS011;9943;54.378;18.604;2022-12-20T11:36:34;26.27;;;16.90;;
17239;SDS011;9943;54.378;18.604;2022-12-20T11:39:14;30.53;;;18.30;;
17239;SDS011;9943;54.378;18.604;2022-12-20T11:41:56;33.23;;;19.33;;
17239;SDS011;9943;54.378;18.604;2022-12-20T11:44:32;28.80;;;17.40;;
17239;SDS011;9943;54.378;18.604;2022-12-20T11:47:20;28.07;;;17.00;;
17239;SDS011;9943;54.378;18.604;2022-12-20T11:50:02;29.73;;;16.53;;
17239;SDS011;9943;54.378;18.604;2022-12-20T11:52:46;31.30;;;18.13;;
17239;SDS011;9943;54.378;18.604;2022-12-20T11:55:18;31.57;;;17.90;;
17239;SDS011;9943;54.378;18.604;2022-12-20T11:57:53;30.37;;;16.23;;
17239;SDS011;9943;54.378;18.604;2022-12-20T12:00:27;36.07;;;17.43;;
17239;SDS011;9943;54.378;18.604;2022-12-20T12:02:56;26.73;;;15.93;;
17239;SDS011;9943;54.378;18.604;2022-12-20T12:05:31;31.57;;;17.97;;
17239;SDS011;9943;54.378;18.604;2022-12-20T12:08:13;30.27;;;17.83;;
17239;SDS011;9943;54.378;18.604;2022-12-20T12:10:49;28.40;;;17.30;;
17239;SDS011;9943;54.378;18.604;2022-12-20T12:13:25;33.63;;;18.43;;
17239;SDS011;9943;54.378;18.604;2022-12-20T12:15:58;30.90;;;16.47;;
17239;SDS011;9943;54.378;18.604;2022-12-20T12:18:33;32.03;;;18.27;;
17239;SDS011;9943;54.378;18.604;2022-12-20T12:21:07;31.60;;;17.87;;
17239;SDS011;9943;54.378;18.604;2022-12-20T12:23:45;29.67;;;18.23;;
17239;SDS011;9943;54.378;18.604;2022-12-20T12:26:19;30.87;;;18.63;;
17239;SDS011;9943;54.378;18.604;2022-12-20T12:28:53;32.43;;;17.67;;
17239;SDS011;9943;54.378;18.604;2022-12-20T12:31:24;31.63;;;18.67;;
17239;SDS011;9943;54.378;18.604;2022-12-20T12:34:09;32.37;;;18.37;;
17239;SDS011;9943;54.378;18.604;2022-12-20T12:37:04;30.77;;;18.77;;
17239;SDS011;9943;54.378;18.604;2022-12-20T12:43:01;33.50;;;19.17;;
17239;SDS011;9943;54.378;18.604;2022-12-20T12:45:54;31.03;;;18.03;;
17239;SDS011;9943;54.378;18.604;2022-12-20T12:48:26;35.63;;;19.00;;
17239;SDS011;9943;54.378;18.604;2022-12-20T12:51:02;27.60;;;17.67;;
17239;SDS011;9943;54.378;18.604;2022-12-20T12:53:33;30.03;;;18.30;;
17239;SDS011;9943;54.378;18.604;2022-12-20T13:01:50;30.53;;;17.37;;
17239;SDS011;9943;54.378;18.604;2022-12-20T13:04:25;33.47;;;18.83;;
17239;SDS011;9943;54.378;18.604;2022-12-20T13:06:57;31.70;;;19.23;;
17239;SDS011;9943;54.378;18.604;2022-12-20T13:09:36;33.10;;;17.87;;
17239;SDS011;9943;54.378;18.604;2022-12-20T13:18:26;30.53;;;18.70;;
17239;SDS011;9943;54.378;18.604;2022-12-20T13:27:21;28.53;;;17.07;;
17239;SDS011;9943;54.378;18.604;2022-12-20T13:35:54;27.40;;;16.33;;
17239;SDS011;9943;54.378;18.604;2022-12-20T13:38:50;28.37;;;17.73;;
17239;SDS011;9943;54.378;18.604;2022-12-20T13:41:30;27.17;;;18.17;;
17239;SDS011;9943;54.378;18.604;2022-12-20T13:44:07;31.97;;;18.10;;
17239;SDS011;9943;54.378;18.604;2022-12-20T13:46:49;30.30;;;17.53;;
17239;SDS011;9943;54.378;18.604;2022-12-20T13:49:23;29.63;;;17.23;;
17239;SDS011;9943;54.378;18.604;2022-12-20T13:52:11;28.40;;;17.00;;
17239;SDS011;9943;54.378;18.604;2022-12-20T13:54:44;33.47;;;18.13;;
17239;SDS011;9943;54.378;18.604;2022-12-20T13:57:17;28.43;;;18.73;;
17239;SDS011;9943;54.378;18.604;2022-12-20T13:59:53;30.83;;;18.67;;
17239;SDS011;9943;54.378;18.604;2022-12-20T14:02:26;31.23;;;18.67;;
17239;SDS011;9943;54.378;18.604;2022-12-20T14:04:58;36.73;;;19.20;;
17239;SDS011;9943;54.378;18.604;2022-12-20T14:07:29;28.53;;;16.97;;
17239;SDS011;9943;54.378;18.604;2022-12-20T14:10:00;34.13;;;21.57;;
17239;SDS011;9943;54.378;18.604;2022-12-20T14:12:33;31.53;;;18.60;;
17239;SDS011;9943;54.378;18.604;2022-12-20T14:15:01;29.93;;;17.80;;
17239;SDS011;9943;54.378;18.604;2022-12-20T14:17:47;31.23;;;18.83;;
17239;SDS011;9943;54.378;18.604;2022-12-20T14:20:17;31.03;;;17.87;;
17239;SDS011;9943;54.378;18.604;2022-12-20T14:22:52;33.13;;;18.83;;
17239;SDS011;9943;54.378;18.604;2022-12-20T14:25:27;31.33;;;18.30;;
17239;SDS011;9943;54.378;18.604;2022-12-20T14:28:02;32.30;;;19.10;;
17239;SDS011;9943;54.378;18.604;2022-12-20T14:30:32;34.57;;;19.77;;
17239;SDS011;9943;54.378;18.604;2022-12-20T14:33:14;31.03;;;18.97;;
17239;SDS011;9943;54.378;18.604;2022-12-20T14:35:53;29.87;;;17.60;;
17239;SDS011;9943;54.378;18.604;2022-12-20T14:38:22;28.43;;;18.27;;
17239;SDS011;9943;54.378;18.604;2022-12-20T14:40:56;31.47;;;19.37;;
17239;SDS011;9943;54.378;18.604;2022-12-20T14:43:26;29.30;;;17.80;;
17239;SDS011;9943;54.378;18.604;2022-12-20T14:46:05;29.67;;;17.60;;
17239;SDS011;9943;54.378;18.604;2022-12-20T14:48:44;31.03;;;18.77;;
17239;SDS011;9943;54.378;18.604;2022-12-20T14:51:13;33.10;;;20.30;;
17239;SDS011;9943;54.378;18.604;2022-12-20T14:53:49;30.00;;;20.30;;
17239;SDS011;9943;54.378;18.604;2022-12-20T14:56:19;29.90;;;18.53;;
17239;SDS011;9943;54.378;18.604;2022-12-20T14:59:01;29.30;;;17.53;;
17239;SDS011;9943;54.378;18.604;2022-12-20T15:01:33;28.03;;;17.57;;
17239;SDS011;9943;54.378;18.604;2022-12-20T15:04:01;28.77;;;17.30;;
17239;SDS011;9943;54.378;18.604;2022-12-20T15:06:47;33.77;;;17.93;;
17239;SDS011;9943;54.378;18.604;2022-12-20T15:09:18;26.53;;;17.13;;
17239;SDS011;9943;54.378;18.604;2022-12-20T15:11:47;26.47;;;17.53;;
17239;SDS011;9943;54.378;18.604;2022-12-20T15:14:34;31.07;;;18.70;;
17239;SDS011;9943;54.378;18.604;2022-12-20T15:17:08;35.27;;;19.23;;
17239;SDS011;9943;54.378;18.604;2022-12-20T15:19:38;30.03;;;18.23;;
17239;SDS011;9943;54.378;18.604;2022-12-20T15:22:08;31.20;;;18.67;;
17239;SDS011;9943;54.378;18.604;2022-12-20T15:24:39;29.23;;;18.27;;
17239;SDS011;9943;54.378;18.604;2022-12-20T15:27:10;32.23;;;18.13;;